createdAt,value
2023-01-09T00:01:53.504Z,76.23
2023-01-09T00:04:43.040Z,75.67
2023-01-09T00:07:32.385Z,75.72
2023-01-09T00:10:21.920Z,76.17
2023-01-09T00:13:13.396Z,75.84
2023-01-09T00:16:02.652Z,75.37
2023-01-09T00:18:53.750Z,75.43
2023-01-09T00:21:43.096Z,75.68
2023-01-09T00:24:32.458Z,75.16
2023-01-09T00:27:22.049Z,75.09
2023-01-09T00:30:13.215Z,75.48
2023-01-09T00:33:02.551Z,75.23
2023-01-09T00:35:53.947Z,75.34
2023-01-09T00:38:43.204Z,74.91
2023-01-09T00:41:36.716Z,74.99
2023-01-09T00:44:31.450Z,74.87
2023-01-09T00:47:26.573Z,74.71
2023-01-09T00:50:20.988Z,75.10
2023-01-09T00:53:18.322Z,74.38
2023-01-09T00:56:14.969Z,74.46
2023-01-09T00:59:04.823Z,75.19
2023-01-09T01:01:54.154Z,74.79
2023-01-09T01:05:01.147Z,74.68
2023-01-09T01:07:50.864Z,74.81
2023-01-09T01:10:42.199Z,74.90
2023-01-09T01:13:31.448Z,74.74
2023-01-09T01:16:21.098Z,74.21
2023-01-09T01:19:10.454Z,74.86
2023-01-09T01:21:59.702Z,75.40
2023-01-09T01:24:49.065Z,75.71
2023-01-09T01:27:40.136Z,75.53
2023-01-09T01:30:31.444Z,75.29
2023-01-09T01:33:20.725Z,76.34
2023-01-09T01:36:11.204Z,76.64
2023-01-09T01:39:00.423Z,77.20
2023-01-09T01:41:49.615Z,77.22
2023-01-09T01:45:08.468Z,77.66
2023-01-09T01:48:03.152Z,77.69
2023-01-09T01:50:57.663Z,78.20
2023-01-09T01:53:50.644Z,79.45
2023-01-09T01:56:45.804Z,80.31
2023-01-09T01:59:39.764Z,80.57
2023-01-09T02:02:33.653Z,80.74
2023-01-09T02:05:26.322Z,81.20
2023-01-09T02:08:15.883Z,82.18
2023-01-09T02:11:06.586Z,83.33
2023-01-09T02:13:55.871Z,83.55
2023-01-09T02:16:56.261Z,84.13
2023-01-09T02:20:43.515Z,84.13
2023-01-09T02:24:26.449Z,84.36
2023-01-09T02:27:42.023Z,84.80
2023-01-09T02:30:44.901Z,84.56
2023-01-09T02:33:54.762Z,84.33
2023-01-09T02:36:55.902Z,84.16
2023-01-09T02:39:53.854Z,84.19
2023-01-09T02:42:45.407Z,84.25
2023-01-09T02:45:36.039Z,84.23
2023-01-09T02:48:25.480Z,83.70
2023-01-09T02:51:23.963Z,84.37
2023-01-09T02:54:29.647Z,84.89
2023-01-09T02:57:44.171Z,84.60
2023-01-09T03:00:44.684Z,85.27
2023-01-09T03:03:41.566Z,84.86
2023-01-09T03:06:39.605Z,84.73
2023-01-09T03:09:33.036Z,84.42
2023-01-09T03:12:26.016Z,84.57
2023-01-09T03:15:19.482Z,84.68
2023-01-09T03:18:12.993Z,84.42
2023-01-09T03:21:03.449Z,83.98
2023-01-09T03:23:57.383Z,83.81
2023-01-09T03:26:46.574Z,83.39
2023-01-09T03:29:35.900Z,83.72
2023-01-09T03:32:27.830Z,83.20
2023-01-09T03:35:18.617Z,84.02
2023-01-09T03:38:08.123Z,83.68
2023-01-09T03:40:57.373Z,83.61
2023-01-09T03:43:47.958Z,83.00
2023-01-09T03:46:37.139Z,82.52
2023-01-09T03:49:26.466Z,82.84
2023-01-09T03:52:17.131Z,82.43
2023-01-09T03:55:07.452Z,82.22
2023-01-09T03:57:56.655Z,82.14
2023-01-09T04:00:48.891Z,81.63
2023-01-09T04:03:38.277Z,81.63
2023-01-09T04:06:27.549Z,82.42
2023-01-09T04:09:18.157Z,82.27
2023-01-09T04:12:08.271Z,82.85
2023-01-09T04:14:57.410Z,83.31
2023-01-09T04:17:46.632Z,82.90
2023-01-09T04:20:36.076Z,83.20
2023-01-09T04:23:25.288Z,83.22
2023-01-09T04:26:16.059Z,83.27
2023-01-09T04:29:05.432Z,83.57
2023-01-09T04:31:54.775Z,84.01
2023-01-09T04:34:44.147Z,83.05
2023-01-09T04:37:33.488Z,82.83
2023-01-09T04:40:22.844Z,82.72
2023-01-09T04:43:13.517Z,82.42
2023-01-09T04:46:04.018Z,82.90
2023-01-09T04:48:53.219Z,82.68
2023-01-09T04:51:42.588Z,82.29
2023-01-09T04:54:32.022Z,82.60
2023-01-09T04:57:21.859Z,82.20
2023-01-09T05:00:13.663Z,82.20
2023-01-09T05:03:02.962Z,82.57
2023-01-09T05:05:52.268Z,82.54
2023-01-09T05:08:41.615Z,82.76
2023-01-09T05:11:30.870Z,83.11
2023-01-09T05:14:20.287Z,83.05
2023-01-09T05:17:10.972Z,83.36
2023-01-09T05:20:01.183Z,83.62
2023-01-09T05:22:50.582Z,83.21
2023-01-09T05:25:39.778Z,83.22
2023-01-09T05:28:28.932Z,83.07
2023-01-09T05:31:18.212Z,83.20
2023-01-09T05:34:08.992Z,83.16
2023-01-09T05:36:58.269Z,83.22
2023-01-09T05:39:47.448Z,83.26
2023-01-09T05:42:36.822Z,82.78
2023-01-09T05:45:27.350Z,83.01
2023-01-09T05:48:16.572Z,82.65
2023-01-09T05:51:07.505Z,82.30
2023-01-09T05:53:56.693Z,82.36
2023-01-09T05:56:46.152Z,82.17
2023-01-09T05:59:35.574Z,81.57
2023-01-09T06:02:24.978Z,81.80
2023-01-09T06:05:14.291Z,81.49
2023-01-09T06:08:04.964Z,81.65
2023-01-09T06:10:54.250Z,81.90
2023-01-09T06:13:43.633Z,81.56
2023-01-09T06:16:33.249Z,81.70
2023-01-09T06:19:22.562Z,81.73
2023-01-09T06:22:11.786Z,81.42
2023-01-09T06:25:02.573Z,81.77
2023-01-09T06:27:52.310Z,81.66
2023-01-09T06:30:41.665Z,80.86
2023-01-09T06:33:30.878Z,80.61
2023-01-09T06:36:22.309Z,80.63
2023-01-09T06:39:14.193Z,80.55
2023-01-09T06:42:05.992Z,80.00
2023-01-09T06:44:55.289Z,80.31
2023-01-09T06:47:44.621Z,79.73
2023-01-09T06:50:34.150Z,79.41
2023-01-09T06:53:23.498Z,79.74
2023-01-09T06:56:12.769Z,79.85
2023-01-09T06:59:03.347Z,79.33
2023-01-09T07:01:53.179Z,79.14
2023-01-09T07:04:42.449Z,78.93
2023-01-09T07:07:31.655Z,78.48
2023-01-09T07:10:21.105Z,78.80
2023-01-09T07:13:10.723Z,78.90
2023-01-09T07:16:03.400Z,78.42
2023-01-09T07:18:52.661Z,78.31
2023-01-09T07:21:41.895Z,78.56
2023-01-09T07:24:31.327Z,78.26
2023-01-09T07:27:21.551Z,78.72
2023-01-09T07:30:12.981Z,78.00
2023-01-09T07:33:04.172Z,78.32
2023-01-09T07:35:53.534Z,78.21
2023-01-09T07:38:42.764Z,78.25
2023-01-09T07:41:32.000Z,78.69
2023-01-09T07:44:22.681Z,78.79
2023-01-09T07:47:12.160Z,78.63
2023-01-09T07:50:02.928Z,78.26
2023-01-09T07:52:52.261Z,78.55
2023-01-09T07:55:43.755Z,78.30
2023-01-09T07:58:33.001Z,78.27
2023-01-09T08:01:22.492Z,78.29
2023-01-09T08:04:12.110Z,77.95
2023-01-09T08:07:03.771Z,78.05
2023-01-09T08:09:52.992Z,77.47
2023-01-09T08:12:45.706Z,78.21
2023-01-09T08:15:35.029Z,77.43
2023-01-09T08:18:24.276Z,77.38
2023-01-09T08:21:14.433Z,77.16
2023-01-09T08:24:05.416Z,77.42
2023-01-09T08:26:54.568Z,77.09
2023-01-09T08:29:43.784Z,76.38
2023-01-09T08:32:33.006Z,76.31
2023-01-09T08:35:22.540Z,75.62
2023-01-09T08:38:12.256Z,75.48
2023-01-09T08:41:23.681Z,74.91
2023-01-09T08:44:30.088Z,74.96
2023-01-09T08:47:23.574Z,74.91
2023-01-09T08:50:13.360Z,74.69
2023-01-09T08:53:02.631Z,74.96
2023-01-09T08:55:51.949Z,74.75
2023-01-09T08:58:42.554Z,74.85
2023-01-09T09:01:31.932Z,74.63
2023-01-09T09:04:21.348Z,74.75
2023-01-09T09:07:10.749Z,74.32
2023-01-09T09:09:59.983Z,75.01
2023-01-09T09:12:51.863Z,74.34
2023-01-09T09:15:42.565Z,74.92
2023-01-09T09:18:31.791Z,75.06
2023-01-09T09:21:21.608Z,74.52
2023-01-09T09:24:11.020Z,75.06
2023-01-09T09:27:00.279Z,75.32
2023-01-09T09:29:49.584Z,75.54
2023-01-09T09:32:40.589Z,75.55
2023-01-09T09:35:31.470Z,75.58
2023-01-09T09:38:20.815Z,75.10
2023-01-09T09:41:46.847Z,75.91
2023-01-09T09:44:59.489Z,75.61
2023-01-09T09:48:06.205Z,75.85
2023-01-09T09:51:25.926Z,75.61
2023-01-09T09:54:19.662Z,75.55
2023-01-09T09:57:17.788Z,75.54
2023-01-09T10:00:09.267Z,75.36
2023-01-09T10:03:07.353Z,75.67
2023-01-09T10:05:59.219Z,75.29
2023-01-09T10:08:57.202Z,75.17
2023-01-09T10:11:54.100Z,75.29
2023-01-09T10:14:43.457Z,75.01
2023-01-09T10:18:06.453Z,74.87
2023-01-09T10:21:01.440Z,74.33
2023-01-09T10:24:11.706Z,74.56
2023-01-09T10:27:11.278Z,74.55
2023-01-09T10:30:24.257Z,74.12
2023-01-09T10:33:35.235Z,73.82
2023-01-09T10:36:48.503Z,73.09
2023-01-09T10:39:43.272Z,73.29
2023-01-09T10:42:36.959Z,73.43
2023-01-09T10:45:29.871Z,73.15
2023-01-09T10:48:30.057Z,72.79
2023-01-09T10:51:23.020Z,72.74
2023-01-09T10:54:16.056Z,72.55
2023-01-09T10:57:11.397Z,72.41
2023-01-09T11:00:00.754Z,71.68
2023-01-09T11:02:50.481Z,71.61
2023-01-09T11:05:41.584Z,71.62
2023-01-09T11:08:36.408Z,71.41
2023-01-09T11:11:36.765Z,71.25
2023-01-09T11:14:31.821Z,71.11
2023-01-09T11:17:23.359Z,71.02
2023-01-09T11:20:21.237Z,70.66
2023-01-09T11:23:30.045Z,70.34
2023-01-09T11:26:26.781Z,70.30
2023-01-09T11:29:17.860Z,70.22
2023-01-09T11:32:09.851Z,70.00
2023-01-09T11:34:59.193Z,69.88
2023-01-09T11:37:58.034Z,69.71
2023-01-09T11:40:51.881Z,70.01
2023-01-09T11:43:41.705Z,69.28
2023-01-09T11:46:38.611Z,69.21
2023-01-09T11:49:30.005Z,69.08
2023-01-09T11:52:22.345Z,69.04
2023-01-09T11:55:17.147Z,69.13
2023-01-09T11:58:13.421Z,68.54
2023-01-09T12:01:19.437Z,67.15
2023-01-09T12:04:29.750Z,63.63
2023-01-09T12:07:56.122Z,61.35
2023-01-09T12:11:04.707Z,60.26
2023-01-09T12:14:18.331Z,59.17
2023-01-09T12:17:48.735Z,58.41
2023-01-09T12:21:00.734Z,58.64
2023-01-09T12:24:12.258Z,58.81
2023-01-09T12:27:20.073Z,59.89
2023-01-09T12:30:46.092Z,60.93
2023-01-09T12:33:44.971Z,61.89
2023-01-09T12:36:43.842Z,61.79
2023-01-09T12:39:44.747Z,61.88
2023-01-09T12:42:49.290Z,61.38
2023-01-09T12:46:02.105Z,61.48
2023-01-09T12:49:16.864Z,61.08
2023-01-09T12:52:13.461Z,60.98
2023-01-09T12:55:14.313Z,60.54
2023-01-09T12:58:10.240Z,60.30
2023-01-09T13:01:03.862Z,60.07
2023-01-09T13:04:07.725Z,59.58
2023-01-09T13:07:04.565Z,59.17
2023-01-09T13:10:00.960Z,58.88
2023-01-09T13:12:51.677Z,58.38
2023-01-09T13:15:45.508Z,57.76
2023-01-09T13:18:41.123Z,57.54
2023-01-09T13:21:30.743Z,56.93
2023-01-09T13:24:26.279Z,57.41
2023-01-09T13:27:19.352Z,57.45
2023-01-09T13:30:37.929Z,58.05
2023-01-09T13:33:29.788Z,58.22
2023-01-09T13:36:29.303Z,59.23
2023-01-09T13:39:25.535Z,59.25
2023-01-09T13:42:39.808Z,60.35
2023-01-09T13:45:31.640Z,60.71
2023-01-09T13:48:42.364Z,60.79
2023-01-09T13:52:02.805Z,61.09
2023-01-09T13:55:31.820Z,60.84
2023-01-09T13:58:26.011Z,61.11
2023-01-09T14:01:47.610Z,60.97
2023-01-09T14:04:46.152Z,60.88
2023-01-09T14:07:37.848Z,60.32
2023-01-09T14:10:31.101Z,60.14
2023-01-09T14:13:24.872Z,59.61
2023-01-09T14:16:20.872Z,59.48
2023-01-09T14:19:36.034Z,58.80
2023-01-09T14:22:29.235Z,58.32
2023-01-09T14:25:24.827Z,58.35
2023-01-09T14:28:23.506Z,58.27
2023-01-09T14:31:29.417Z,57.70
2023-01-09T14:34:32.476Z,57.51
2023-01-09T14:37:22.562Z,57.08
2023-01-09T14:40:23.440Z,57.02
2023-01-09T14:43:34.652Z,57.30
2023-01-09T14:46:25.566Z,57.07
2023-01-09T14:49:25.453Z,57.15
2023-01-09T14:52:23.744Z,57.03
2023-01-09T14:55:24.017Z,56.74
2023-01-09T14:58:22.508Z,56.54
2023-01-09T15:01:19.384Z,56.80
2023-01-09T15:04:24.479Z,56.96
2023-01-09T15:07:21.986Z,56.96
2023-01-09T15:10:19.949Z,57.14
2023-01-09T15:13:19.644Z,57.15
2023-01-09T15:16:19.870Z,57.45
2023-01-09T15:19:10.774Z,57.51
2023-01-09T15:22:03.661Z,57.98
2023-01-09T15:24:52.974Z,58.10
2023-01-09T15:27:49.727Z,58.62
2023-01-09T15:30:41.944Z,59.50
2023-01-09T15:33:31.591Z,59.62
2023-01-09T15:36:25.375Z,61.02
2023-01-09T15:39:19.680Z,61.10
2023-01-09T15:42:41.126Z,60.91
2023-01-09T15:45:35.587Z,61.37
2023-01-09T15:48:29.403Z,61.54
2023-01-09T15:51:18.816Z,61.97
2023-01-09T15:54:08.163Z,62.01
2023-01-09T15:57:34.102Z,62.75
2023-01-09T16:00:44.095Z,63.22
2023-01-09T16:03:39.159Z,63.48
2023-01-09T16:06:31.663Z,63.54
2023-01-09T16:09:27.338Z,63.68
2023-01-09T16:12:22.972Z,63.89
2023-01-09T16:15:19.201Z,64.56
2023-01-09T16:18:29.857Z,64.84
2023-01-09T16:21:36.717Z,64.94
2023-01-09T16:24:29.692Z,65.35
2023-01-09T16:27:26.428Z,65.19
2023-01-09T16:30:28.005Z,66.12
2023-01-09T16:33:23.212Z,66.06
2023-01-09T16:36:13.881Z,66.10
2023-01-09T16:39:05.657Z,66.61
2023-01-09T16:42:16.114Z,67.09
2023-01-09T16:45:06.266Z,66.87
2023-01-09T16:47:55.817Z,67.28
2023-01-09T16:50:45.691Z,67.49
2023-01-09T16:53:35.006Z,67.23
2023-01-09T16:56:28.933Z,67.21
2023-01-09T16:59:24.783Z,67.08
2023-01-09T17:02:19.313Z,66.61
2023-01-09T17:05:09.451Z,66.75
2023-01-09T17:07:58.701Z,66.13
2023-01-09T17:10:47.939Z,66.16
2023-01-09T17:13:38.555Z,66.09
2023-01-09T17:16:29.193Z,66.15
2023-01-09T17:19:21.736Z,66.12
2023-01-09T17:22:11.315Z,65.83
2023-01-09T17:25:17.746Z,66.30
2023-01-09T17:28:25.164Z,65.99
2023-01-09T17:31:15.935Z,66.09
2023-01-09T17:34:05.191Z,66.00
2023-01-09T17:36:55.756Z,66.08
2023-01-09T17:39:45.428Z,65.91
2023-01-09T17:42:34.754Z,66.00
2023-01-09T17:45:24.041Z,65.93
2023-01-09T17:48:20.260Z,66.17
2023-01-09T17:51:10.878Z,66.11
2023-01-09T17:54:00.541Z,66.88
2023-01-09T17:56:52.385Z,66.25
2023-01-09T17:59:41.595Z,66.83
2023-01-09T18:02:30.862Z,66.24
2023-01-09T18:05:21.817Z,66.50
2023-01-09T18:08:13.962Z,66.29
2023-01-09T18:11:04.568Z,66.04
2023-01-09T18:13:54.843Z,65.82
2023-01-09T18:16:45.171Z,66.09
2023-01-09T18:19:34.788Z,66.05
2023-01-09T18:22:25.436Z,66.29
2023-01-09T18:25:15.181Z,66.43
2023-01-09T18:28:04.528Z,66.40
2023-01-09T18:30:53.805Z,66.80
2023-01-09T18:33:43.275Z,66.69
2023-01-09T18:36:33.786Z,66.87
2023-01-09T18:39:24.575Z,66.96
2023-01-09T18:42:14.027Z,67.14
2023-01-09T18:45:03.531Z,67.67
2023-01-09T18:47:52.906Z,67.19
2023-01-09T18:50:42.129Z,67.24
2023-01-09T18:53:31.398Z,67.43
2023-01-09T18:56:22.688Z,67.53
2023-01-09T18:59:12.433Z,67.57
2023-01-09T19:02:02.349Z,67.87
2023-01-09T19:04:52.102Z,67.88
2023-01-09T19:07:41.437Z,68.01
2023-01-09T19:10:30.676Z,67.56
2023-01-09T19:13:21.279Z,67.83
2023-01-09T19:16:11.081Z,68.35
2023-01-09T19:19:02.747Z,68.27
2023-01-09T19:21:52.106Z,68.33
2023-01-09T19:24:41.430Z,67.67
2023-01-09T19:27:31.470Z,68.08
2023-01-09T19:30:22.409Z,68.18
2023-01-09T19:33:13.141Z,68.09
2023-01-09T19:36:02.347Z,68.11
2023-01-09T19:38:57.223Z,68.58
2023-01-09T19:41:46.667Z,68.76
2023-01-09T19:44:35.890Z,68.70
2023-01-09T19:47:26.539Z,68.25
2023-01-09T19:50:16.626Z,68.03
2023-01-09T19:53:05.890Z,68.29
2023-01-09T19:55:55.130Z,68.42
2023-01-09T19:58:50.160Z,68.70
2023-01-09T20:01:41.812Z,68.56
2023-01-09T20:04:32.655Z,69.05
2023-01-09T20:07:22.493Z,69.37
2023-01-09T20:10:12.461Z,69.48
2023-01-09T20:13:01.919Z,70.16
2023-01-09T20:15:51.200Z,70.43
2023-01-09T20:18:40.910Z,70.10
2023-01-09T20:21:31.830Z,70.03
2023-01-09T20:24:21.175Z,70.73
2023-01-09T20:27:10.410Z,70.91
2023-01-09T20:29:59.785Z,70.43
2023-01-09T20:32:49.509Z,70.31
2023-01-09T20:35:38.756Z,70.42
2023-01-09T20:38:29.627Z,70.63
2023-01-09T20:41:23.655Z,70.51
2023-01-09T20:44:15.786Z,70.26
2023-01-09T20:47:05.220Z,70.03
2023-01-09T20:49:54.518Z,70.05
2023-01-09T20:52:43.929Z,69.93
2023-01-09T20:55:34.919Z,70.08
2023-01-09T20:58:24.129Z,70.15
2023-01-09T21:01:15.284Z,70.17
2023-01-09T21:04:04.719Z,70.14
2023-01-09T21:06:54.053Z,69.74
2023-01-09T21:09:43.378Z,70.13
2023-01-09T21:12:38.693Z,70.00
2023-01-09T21:15:28.303Z,70.27
2023-01-09T21:18:17.624Z,70.46
2023-01-09T21:21:09.565Z,70.67
2023-01-09T21:24:01.654Z,70.15
2023-01-09T21:26:51.048Z,70.49
2023-01-09T21:29:41.972Z,70.74
2023-01-09T21:32:32.835Z,70.53
2023-01-09T21:35:22.129Z,70.33
2023-01-09T21:38:11.430Z,70.53
2023-01-09T21:41:21.439Z,70.44
2023-01-09T21:44:31.624Z,70.20
2023-01-09T21:47:22.925Z,70.35
2023-01-09T21:50:12.736Z,70.43
2023-01-09T21:53:02.319Z,70.51
2023-01-09T21:55:52.934Z,70.72
2023-01-09T21:58:45.601Z,70.54
2023-01-09T22:01:35.084Z,70.92
2023-01-09T22:04:29.111Z,70.61
2023-01-09T22:07:18.732Z,70.59
2023-01-09T22:10:10.052Z,70.60
2023-01-09T22:13:16.303Z,70.63
2023-01-09T22:16:08.192Z,71.27
2023-01-09T22:18:58.273Z,70.96
2023-01-09T22:21:49.594Z,71.37
2023-01-09T22:24:38.983Z,71.03
2023-01-09T22:27:28.396Z,70.76
2023-01-09T22:30:18.308Z,70.69
2023-01-09T22:33:10.715Z,70.85
2023-01-09T22:36:07.554Z,70.87
2023-01-09T22:38:59.907Z,70.68
2023-01-09T22:41:54.520Z,70.72
2023-01-09T22:44:43.690Z,70.78
2023-01-09T22:47:32.995Z,70.50
2023-01-09T22:50:22.367Z,70.18
2023-01-09T22:53:11.818Z,69.94
2023-01-09T22:56:06.113Z,70.29
2023-01-09T22:58:58.494Z,70.63
2023-01-09T23:01:47.937Z,69.92
2023-01-09T23:04:37.349Z,70.02
2023-01-09T23:07:27.116Z,70.24
2023-01-09T23:10:17.311Z,70.04
2023-01-09T23:13:08.125Z,70.16
2023-01-09T23:15:57.638Z,69.76
2023-01-09T23:18:46.877Z,69.79
2023-01-09T23:21:36.163Z,69.90
2023-01-09T23:24:25.424Z,69.74
2023-01-09T23:27:14.794Z,70.19
2023-01-09T23:30:06.634Z,69.63
2023-01-09T23:32:55.893Z,69.30
2023-01-09T23:35:45.541Z,69.12
2023-01-09T23:38:34.933Z,68.70
2023-01-09T23:41:45.044Z,68.48
2023-01-09T23:44:33.322Z,68.30
2023-01-09T23:47:24.011Z,67.87
2023-01-09T23:50:13.669Z,67.85
2023-01-09T23:53:03.294Z,67.76
2023-01-09T23:55:55.856Z,67.13
2023-01-09T23:58:45.212Z,67.21
